createdAt,value
2022-12-04T00:01:15.734Z,0.57
2022-12-04T00:03:43.071Z,0.56
2022-12-04T00:06:15.506Z,0.52
2022-12-04T00:08:43.526Z,0.48
2022-12-04T00:11:13.414Z,0.44
2022-12-04T00:13:41.179Z,0.49
2022-12-04T00:16:12.287Z,0.50
2022-12-04T00:18:40.039Z,0.57
2022-12-04T00:21:09.726Z,0.56
2022-12-04T00:23:38.257Z,0.61
2022-12-04T00:26:11.342Z,0.62
2022-12-04T00:28:38.918Z,0.60
2022-12-04T00:31:08.300Z,0.57
2022-12-04T00:33:35.927Z,0.57
2022-12-04T00:36:06.577Z,0.58
2022-12-04T00:38:34.129Z,0.57
2022-12-04T00:41:01.470Z,0.53
2022-12-04T00:43:29.422Z,0.47
2022-12-04T00:45:57.014Z,0.50
2022-12-04T00:48:24.858Z,0.60
2022-12-04T00:50:52.254Z,0.61
2022-12-04T00:53:19.834Z,0.63
2022-12-04T00:55:47.497Z,0.61
2022-12-04T00:58:14.813Z,0.62
2022-12-04T01:00:43.036Z,0.67
2022-12-04T01:03:10.581Z,0.62
2022-12-04T01:05:43.728Z,0.57
2022-12-04T01:08:12.607Z,0.46
2022-12-04T01:10:41.999Z,0.43
2022-12-04T01:13:09.493Z,0.49
2022-12-04T01:15:40.390Z,0.54
2022-12-04T01:18:07.783Z,0.60
2022-12-04T01:20:35.185Z,0.61
2022-12-04T01:23:02.646Z,0.61
2022-12-04T01:25:29.975Z,0.56
2022-12-04T01:27:57.347Z,0.50
2022-12-04T01:30:24.656Z,0.45
2022-12-04T01:32:51.960Z,0.43
2022-12-04T01:35:19.254Z,0.50
2022-12-04T01:37:46.583Z,0.44
2022-12-04T01:40:15.119Z,0.47
2022-12-04T01:42:42.429Z,0.54
2022-12-04T01:45:30.751Z,0.50
2022-12-04T01:48:09.609Z,0.48
2022-12-04T01:50:37.121Z,0.45
2022-12-04T01:53:06.652Z,0.47
2022-12-04T01:55:34.165Z,0.48
2022-12-04T01:58:02.348Z,0.57
2022-12-04T02:00:29.679Z,0.65
2022-12-04T02:02:57.158Z,0.66
2022-12-04T02:05:25.038Z,0.66
2022-12-04T02:07:57.241Z,0.65
2022-12-04T02:10:50.254Z,0.65
2022-12-04T02:13:24.067Z,0.70
2022-12-04T02:16:04.485Z,0.67
2022-12-04T02:18:51.671Z,0.66
2022-12-04T02:21:24.182Z,0.68
2022-12-04T02:24:22.020Z,0.65
2022-12-04T02:26:56.037Z,0.56
2022-12-04T02:29:29.944Z,0.52
2022-12-04T02:32:28.416Z,0.57
2022-12-04T02:35:06.822Z,0.56
2022-12-04T02:37:44.538Z,0.52
2022-12-04T02:40:21.400Z,0.58
2022-12-04T02:43:08.031Z,0.65
2022-12-04T02:45:40.667Z,0.71
2022-12-04T02:48:08.550Z,0.65
2022-12-04T02:50:37.925Z,0.63
2022-12-04T02:53:09.730Z,0.64
2022-12-04T02:55:44.115Z,0.62
2022-12-04T02:58:18.971Z,0.56
2022-12-04T03:00:47.462Z,0.60
2022-12-04T03:03:19.582Z,0.59
2022-12-04T03:06:00.772Z,0.66
2022-12-04T03:08:42.466Z,0.64
2022-12-04T03:11:09.766Z,0.63
2022-12-04T03:13:42.805Z,0.65
2022-12-04T03:16:16.794Z,0.59
2022-12-04T03:18:49.367Z,0.61
2022-12-04T03:21:19.363Z,0.66
2022-12-04T03:23:50.494Z,0.71
2022-12-04T03:26:23.871Z,0.66
2022-12-04T03:28:58.232Z,0.68
2022-12-04T03:31:40.619Z,0.68
2022-12-04T03:34:08.686Z,0.71
2022-12-04T03:36:50.102Z,0.70
2022-12-04T03:39:27.568Z,0.75
2022-12-04T03:41:57.442Z,0.79
2022-12-04T03:44:35.951Z,0.81
2022-12-04T03:47:36.439Z,0.84
2022-12-04T03:50:16.384Z,0.76
2022-12-04T03:53:04.984Z,0.77
2022-12-04T03:55:42.241Z,0.82
2022-12-04T03:58:14.097Z,0.85
2022-12-04T04:00:43.231Z,0.87
2022-12-04T04:03:15.390Z,0.86
2022-12-04T04:05:47.318Z,0.87
2022-12-04T04:08:31.061Z,0.88
2022-12-04T04:11:12.020Z,0.91
2022-12-04T04:14:04.161Z,0.89
2022-12-04T04:16:51.909Z,0.85
2022-12-04T04:19:38.577Z,0.76
2022-12-04T04:22:26.974Z,0.74
2022-12-04T04:25:04.746Z,0.75
2022-12-04T04:27:32.216Z,0.78
2022-12-04T04:29:59.889Z,0.70
2022-12-04T04:32:41.878Z,0.74
2022-12-04T04:35:09.101Z,0.72
2022-12-04T04:38:03.985Z,0.73
2022-12-04T04:40:45.446Z,0.71
2022-12-04T04:43:17.400Z,0.72
2022-12-04T04:45:52.566Z,0.78
2022-12-04T04:48:36.182Z,0.86
2022-12-04T04:51:04.340Z,0.83
2022-12-04T04:53:37.158Z,0.83
2022-12-04T04:56:06.255Z,0.82
2022-12-04T04:58:33.589Z,0.79
2022-12-04T05:01:06.019Z,0.73
2022-12-04T05:03:36.362Z,0.78
2022-12-04T05:06:03.700Z,0.84
2022-12-04T05:08:31.019Z,0.82
2022-12-04T05:10:58.407Z,0.88
2022-12-04T05:13:25.754Z,0.94
2022-12-04T05:16:04.295Z,0.90
2022-12-04T05:18:32.464Z,0.93
2022-12-04T05:20:59.745Z,0.89
2022-12-04T05:23:27.109Z,0.91
2022-12-04T05:26:05.055Z,0.96
2022-12-04T05:28:32.454Z,0.96
2022-12-04T05:31:02.088Z,1.01
2022-12-04T05:33:30.179Z,0.95
2022-12-04T05:35:58.274Z,0.88
2022-12-04T05:38:25.755Z,0.85
2022-12-04T05:40:53.159Z,0.84
2022-12-04T05:43:20.541Z,0.83
2022-12-04T05:45:47.855Z,0.86
2022-12-04T05:48:15.394Z,0.79
2022-12-04T05:50:42.723Z,0.77
2022-12-04T05:53:10.116Z,0.80
2022-12-04T05:55:37.441Z,0.83
2022-12-04T05:58:05.145Z,0.84
2022-12-04T06:00:32.494Z,0.83
2022-12-04T06:02:59.988Z,0.87
2022-12-04T06:05:27.387Z,0.88
2022-12-04T06:07:54.746Z,0.87
2022-12-04T06:10:22.147Z,0.92
2022-12-04T06:12:49.503Z,0.88
2022-12-04T06:15:16.809Z,0.86
2022-12-04T06:17:44.169Z,0.89
2022-12-04T06:20:12.190Z,0.92
2022-12-04T06:22:39.644Z,0.99
2022-12-04T06:25:07.651Z,1.02
2022-12-04T06:27:35.039Z,1.04
2022-12-04T06:30:02.958Z,1.02
2022-12-04T06:32:30.328Z,1.05
2022-12-04T06:34:57.672Z,1.09
2022-12-04T06:37:25.315Z,1.10
2022-12-04T06:39:52.837Z,1.08
2022-12-04T06:42:20.295Z,1.08
2022-12-04T06:44:47.585Z,1.07
2022-12-04T06:47:14.918Z,1.04
2022-12-04T06:49:42.351Z,1.01
2022-12-04T06:52:09.688Z,1.09
2022-12-04T06:54:37.125Z,1.12
2022-12-04T06:57:04.419Z,1.14
2022-12-04T06:59:32.604Z,1.14
2022-12-04T07:01:59.994Z,1.12
2022-12-04T07:04:27.389Z,1.06
2022-12-04T07:06:54.691Z,1.04
2022-12-04T07:09:23.228Z,1.07
2022-12-04T07:11:50.568Z,1.12
2022-12-04T07:14:17.966Z,1.08
2022-12-04T07:16:45.593Z,1.08
2022-12-04T07:19:14.099Z,1.05
2022-12-04T07:21:41.897Z,1.10
2022-12-04T07:24:15.662Z,1.10
2022-12-04T07:26:43.475Z,1.08
2022-12-04T07:29:10.850Z,1.14
2022-12-04T07:31:38.462Z,1.15
2022-12-04T07:34:05.856Z,1.16
2022-12-04T07:36:33.136Z,1.13
2022-12-04T07:39:00.487Z,1.16
2022-12-04T07:41:27.851Z,1.18
2022-12-04T07:43:55.246Z,1.12
2022-12-04T07:46:27.607Z,1.12
2022-12-04T07:48:56.528Z,1.15
2022-12-04T07:51:26.312Z,1.22
2022-12-04T07:53:54.872Z,1.27
2022-12-04T07:56:22.223Z,1.30
2022-12-04T07:58:49.553Z,1.23
2022-12-04T08:01:22.317Z,1.23
2022-12-04T08:03:52.201Z,1.30
2022-12-04T08:06:21.764Z,1.27
2022-12-04T08:08:49.865Z,1.31
2022-12-04T08:11:19.971Z,1.34
2022-12-04T08:13:48.573Z,1.29
2022-12-04T08:16:18.578Z,1.29
2022-12-04T08:18:48.440Z,1.32
2022-12-04T08:21:20.507Z,1.32
2022-12-04T08:23:49.807Z,1.37
2022-12-04T08:26:19.969Z,1.41
2022-12-04T08:28:47.628Z,1.39
2022-12-04T08:31:18.772Z,1.37
2022-12-04T08:33:47.269Z,1.41
2022-12-04T08:36:17.388Z,1.43
2022-12-04T08:38:45.290Z,1.42
2022-12-04T08:41:14.696Z,1.39
2022-12-04T08:43:42.304Z,1.42
2022-12-04T08:46:11.921Z,1.44
2022-12-04T08:48:39.488Z,1.47
2022-12-04T08:51:10.568Z,1.49
2022-12-04T08:53:38.134Z,1.41
2022-12-04T08:56:05.752Z,1.36
2022-12-04T08:58:33.057Z,1.39
2022-12-04T09:01:07.159Z,1.44
2022-12-04T09:03:35.078Z,1.44
2022-12-04T09:06:04.500Z,1.49
2022-12-04T09:08:32.970Z,1.52
2022-12-04T09:11:12.515Z,1.54
2022-12-04T09:13:41.298Z,1.57
2022-12-04T09:16:11.469Z,1.54
2022-12-04T09:18:39.472Z,1.53
2022-12-04T09:21:09.445Z,1.57
2022-12-04T09:23:38.368Z,1.54
2022-12-04T09:26:07.233Z,1.60
2022-12-04T09:28:34.903Z,1.58
2022-12-04T09:31:05.276Z,1.60
2022-12-04T09:33:33.224Z,1.62
2022-12-04T09:36:03.980Z,1.68
2022-12-04T09:38:31.287Z,1.73
2022-12-04T09:41:06.177Z,1.66
2022-12-04T09:43:48.106Z,1.68
2022-12-04T09:46:20.600Z,1.70
2022-12-04T09:48:48.651Z,1.67
2022-12-04T09:51:18.933Z,1.68
2022-12-04T09:53:50.550Z,1.64
2022-12-04T09:56:22.223Z,1.67
2022-12-04T09:59:00.381Z,1.72
2022-12-04T10:01:32.160Z,1.69
2022-12-04T10:04:05.754Z,1.73
2022-12-04T10:06:44.402Z,1.83
2022-12-04T10:09:20.153Z,1.83
2022-12-04T10:11:58.377Z,1.72
2022-12-04T10:15:06.936Z,1.69
2022-12-04T10:17:50.381Z,1.77
2022-12-04T10:21:09.604Z,1.77
2022-12-04T10:23:51.798Z,1.79
2022-12-04T10:26:22.453Z,1.81
2022-12-04T10:28:56.801Z,1.89
2022-12-04T10:31:24.916Z,1.92
2022-12-04T10:33:53.300Z,1.93
2022-12-04T10:36:22.163Z,1.91
2022-12-04T10:38:53.968Z,1.92
2022-12-04T10:41:24.232Z,1.92
2022-12-04T10:43:51.671Z,1.88
2022-12-04T10:46:27.592Z,1.95
2022-12-04T10:48:59.529Z,1.97
2022-12-04T10:51:28.467Z,1.98
2022-12-04T10:53:56.094Z,1.98
2022-12-04T10:56:26.012Z,2.02
2022-12-04T10:59:00.506Z,2.07
2022-12-04T11:01:32.518Z,2.09
2022-12-04T11:04:06.487Z,2.11
2022-12-04T11:06:34.152Z,2.14
2022-12-04T11:09:02.537Z,2.13
2022-12-04T11:11:32.207Z,2.19
2022-12-04T11:14:17.418Z,2.19
2022-12-04T11:16:49.265Z,2.21
2022-12-04T11:19:24.695Z,2.22
2022-12-04T11:21:55.123Z,2.24
2022-12-04T11:24:32.669Z,2.24
2022-12-04T11:27:00.674Z,2.22
2022-12-04T11:29:35.894Z,2.18
2022-12-04T11:32:07.781Z,2.21
2022-12-04T11:34:38.940Z,2.18
2022-12-04T11:37:18.766Z,2.20
2022-12-04T11:39:46.280Z,2.14
2022-12-04T11:42:13.608Z,2.13
2022-12-04T11:44:50.776Z,2.14
2022-12-04T11:47:19.805Z,2.21
2022-12-04T11:50:01.038Z,2.21
2022-12-04T11:52:54.074Z,2.18
2022-12-04T11:55:29.188Z,2.15
2022-12-04T11:58:15.248Z,2.11
2022-12-04T12:00:52.457Z,2.16
2022-12-04T12:03:38.609Z,2.21
2022-12-04T12:06:24.617Z,2.21
2022-12-04T12:09:00.607Z,2.26
2022-12-04T12:11:51.425Z,2.31
2022-12-04T12:14:53.265Z,2.28
2022-12-04T12:17:32.206Z,2.29
2022-12-04T12:20:20.874Z,2.30
2022-12-04T12:23:14.025Z,2.34
2022-12-04T12:26:22.551Z,2.41
2022-12-04T12:28:58.562Z,2.46
2022-12-04T12:31:39.629Z,2.41
2022-12-04T12:34:40.388Z,2.36
2022-12-04T12:37:14.664Z,2.31
2022-12-04T12:39:59.173Z,2.32
2022-12-04T12:42:32.496Z,2.34
2022-12-04T12:45:06.787Z,2.37
2022-12-04T12:47:43.348Z,2.32
2022-12-04T12:50:28.036Z,2.30
2022-12-04T12:52:59.563Z,2.32
2022-12-04T12:55:29.613Z,2.35
2022-12-04T12:58:40.228Z,2.40
2022-12-04T13:01:15.721Z,2.37
2022-12-04T13:03:50.277Z,2.36
2022-12-04T13:06:21.093Z,2.30
2022-12-04T13:09:15.573Z,2.30
2022-12-04T13:11:44.272Z,2.34
2022-12-04T13:14:13.603Z,2.35
2022-12-04T13:16:45.316Z,2.41
2022-12-04T13:19:32.892Z,2.42
2022-12-04T13:22:05.531Z,2.41
2022-12-04T13:24:48.606Z,2.41
2022-12-04T13:27:58.676Z,2.39
2022-12-04T13:30:40.295Z,2.39
2022-12-04T13:33:29.193Z,2.37
2022-12-04T13:36:14.866Z,2.41
2022-12-04T13:39:03.557Z,2.42
2022-12-04T13:41:34.118Z,2.47
2022-12-04T13:44:06.898Z,2.44
2022-12-04T13:46:36.831Z,2.44
2022-12-04T13:49:15.985Z,2.37
2022-12-04T13:51:45.287Z,2.39
2022-12-04T13:54:12.499Z,2.45
2022-12-04T13:56:51.621Z,2.44
2022-12-04T13:59:25.045Z,2.36
2022-12-04T14:01:58.068Z,2.31
2022-12-04T14:04:44.519Z,2.27
2022-12-04T14:07:25.759Z,2.33
2022-12-04T14:09:54.089Z,2.38
2022-12-04T14:12:26.826Z,2.39
2022-12-04T14:15:21.099Z,2.36
2022-12-04T14:18:17.947Z,2.38
2022-12-04T14:20:45.311Z,2.44
2022-12-04T14:23:15.291Z,2.49
2022-12-04T14:25:42.961Z,2.55
2022-12-04T14:28:27.201Z,2.56
2022-12-04T14:31:14.301Z,2.47
2022-12-04T14:33:48.895Z,2.49
2022-12-04T14:36:24.798Z,2.50
2022-12-04T14:39:15.513Z,2.42
2022-12-04T14:41:42.861Z,2.40
2022-12-04T14:44:27.307Z,2.43
2022-12-04T14:47:07.519Z,2.45
2022-12-04T14:49:50.110Z,2.50
2022-12-04T14:52:45.586Z,2.46
2022-12-04T14:55:47.137Z,2.43
2022-12-04T14:58:35.644Z,2.38
2022-12-04T15:01:25.295Z,2.36
2022-12-04T15:03:57.942Z,2.35
2022-12-04T15:06:29.988Z,2.32
2022-12-04T15:09:18.882Z,2.36
2022-12-04T15:12:12.718Z,2.29
2022-12-04T15:14:48.234Z,2.29
2022-12-04T15:17:17.484Z,2.26
2022-12-04T15:19:45.597Z,2.33
2022-12-04T15:22:25.602Z,2.41
2022-12-04T15:24:54.607Z,2.40
2022-12-04T15:27:28.941Z,2.43
2022-12-04T15:30:01.099Z,2.49
2022-12-04T15:32:29.216Z,2.48
2022-12-04T15:35:01.131Z,2.52
2022-12-04T15:37:32.179Z,2.55
2022-12-04T15:40:00.029Z,2.48
2022-12-04T15:42:29.456Z,2.42
2022-12-04T15:45:01.920Z,2.41
2022-12-04T16:33:58.053Z,2.34
2022-12-04T17:43:05.560Z,2.49
2022-12-04T17:45:32.924Z,2.52
2022-12-04T18:01:21.204Z,2.58
2022-12-04T18:08:12.920Z,2.45
2022-12-04T18:10:40.329Z,2.46
2022-12-04T20:23:38.227Z,2.96
2022-12-04T22:29:49.308Z,3.18
2022-12-04T23:16:37.569Z,2.92
2022-12-04T23:36:17.375Z,3.04
2022-12-04T23:51:57.634Z,3.01
